Charter Quote
Worldwide +1-877-727-2538 Call
Select Language Lang
SAFETY RELIABILITY EXPERIENCE

Abumusa Island Airport (OIBA) - Jet Charter Services

AIRPORT INFORMATION
ICAOOIBA
LOCATIONAbumusa Island, Iran
FACILITY TYPEAIRPORT
Runway Length (ft) Width (ft) Surface Type Elevation (ft)
26/08 9796 148 ASP 22.98361

At Paramount Business Jets you can hire chartered private jets to and from Abumusa Island Airport with as little as 4 hours of notice. All flights booked via Paramount Business Jets are operated by certified direct air carriers that meet and exceed the FAA part 135 and 121 protocol or a foreign equivalent safety authority. Furthermore, Paramount Business Jets subscribes to ARGUS for their third party safety checks of operators, aircraft, and crews prior each and every flight to and from Abumusa Island Airport and worldwide.

  • Quote a trip using Abumusa Island Airport or call us 24/7 - 365 days a year at +1-877-727-2538.
Questions? Call +1-877-727-2538

METAR Weather Data at Abumusa Island Airport, OIBA

STATIONOIBA
OBSERVEDSun Mar 24, 07:00 UTC
NOWSun Mar 24, 07:14 UTC
AGE14 min ago
WINDENE at 21 mph
VISIBILITYgreater than 7 miles
CLOUDSclear skies
TEMP75°F (24°C)
DEWPT70°F (21°C)
HUMIDITY83%
BAROMETER1011 hPa (29.85 in Hg)
METAROIBA 240700Z 06018KT CAVOK 24/21 Q1011

Call us on +1-877-727-2538 (24 Hours) to Hire a Private Jet or Get a Quick Quote.

Find Airports Near any Location

Processing
...